Time;durP1;ratioP1;P1;durP2;ratioP2;P2;SDS_P1;SDS_P2;PMS_P1;PMS_P2;Temp;Humidity;BMP_temperature;BMP_pressure;BME280_temperature;BME280_humidity;BME280_pressure;Samples;Min_cycle;Max_cycle;Signal;HPM_P1;HPM_P2
2022/08/29 00:01:36;;;;;;;6.50;2.33;;;12.20;60.60;;;;;;5103376;28;20461;-84
2022/08/29 00:04:03;;;;;;;6.70;2.50;;;12.20;61.50;;;;;;5103554;28;20456;-84
2022/08/29 00:06:31;;;;;;;7.50;2.23;;;12.20;62.80;;;;;;5102675;28;20473;-84
2022/08/29 00:08:58;;;;;;;6.00;2.40;;;12.00;62.80;;;;;;5103163;28;20456;-84
2022/08/29 00:11:24;;;;;;;6.43;2.97;;;12.00;62.80;;;;;;5102938;28;20450;-84
2022/08/29 00:13:51;;;;;;;7.77;2.30;;;11.90;62.70;;;;;;5102995;28;20441;-83
2022/08/29 00:16:18;;;;;;;10.60;2.17;;;11.80;63.80;;;;;;5103443;28;20460;-84
2022/08/29 00:18:45;;;;;;;5.77;2.60;;;11.80;65.70;;;;;;5103821;28;20454;-84
2022/08/29 00:21:12;;;;;;;9.50;2.83;;;11.80;65.80;;;;;;5103960;28;20524;-83
2022/08/29 00:23:40;;;;;;;11.73;3.00;;;11.80;67.00;;;;;;5104885;28;20473;-83
2022/08/29 00:26:07;;;;;;;6.30;2.60;;;11.60;67.70;;;;;;5103592;28;20449;-83
2022/08/29 00:28:34;;;;;;;5.60;3.17;;;11.70;68.80;;;;;;5104514;28;20457;-85
2022/08/29 00:31:01;;;;;;;7.10;2.87;;;11.60;70.50;;;;;;5103752;28;20476;-83
2022/08/29 00:33:28;;;;;;;8.93;3.13;;;11.60;70.50;;;;;;5104114;28;20446;-83
2022/08/29 00:35:55;;;;;;;6.70;3.63;;;11.50;71.40;;;;;;5103009;28;20449;-84
2022/08/29 00:38:21;;;;;;;6.60;3.60;;;11.60;71.90;;;;;;5104509;28;20484;-84
2022/08/29 00:40:52;;;;;;;8.13;4.40;;;11.40;71.90;;;;;;5103762;28;20446;-84
2022/08/29 00:43:24;;;;;;;9.60;3.70;;;11.50;73.30;;;;;;5104401;28;20469;-85
2022/08/29 00:45:56;;;;;;;7.10;3.00;;;11.50;73.90;;;;;;5103831;28;20836;-84
2022/08/29 00:48:23;;;;;;;7.27;2.80;;;11.50;74.30;;;;;;5104133;28;20469;-84
2022/08/29 00:50:53;;;;;;;4.87;2.37;;;11.40;73.30;;;;;;5102763;28;20446;-85
2022/08/29 00:53:28;;;;;;;4.80;2.20;;;11.30;72.10;;;;;;5103452;28;20446;-84
2022/08/29 00:55:57;;;;;;;6.90;2.90;;;11.30;72.40;;;;;;5104059;28;20803;-84
2022/08/29 00:58:30;;;;;;;6.63;3.30;;;11.30;73.00;;;;;;5103995;28;20541;-84
2022/08/29 01:00:57;;;;;;;11.67;4.50;;;11.20;73.80;;;;;;5103361;28;20520;-84
2022/08/29 01:03:25;;;;;;;7.03;4.23;;;11.20;75.80;;;;;;5104303;28;20500;-84
2022/08/29 01:05:52;;;;;;;16.33;7.83;;;11.20;75.80;;;;;;5103970;28;20450;-84
2022/08/29 01:08:19;;;;;;;9.20;7.57;;;11.10;77.60;;;;;;5104042;28;20476;-84
2022/08/29 01:13:36;;;;;;;11.17;10.23;;;11.10;80.20;;;;;;5105176;28;20467;-84
2022/08/29 01:16:03;;;;;;;7.67;6.97;;;11.10;80.80;;;;;;5104583;28;20434;-85
2022/08/29 01:18:32;;;;;;;9.00;6.77;;;11.10;81.50;;;;;;5104075;28;20472;-84
2022/08/29 01:21:07;;;;;;;11.10;9.20;;;11.10;81.10;;;;;;5103604;28;20450;-84
2022/08/29 01:23:40;;;;;;;13.53;6.40;;;11.00;82.60;;;;;;5103201;28;20476;-84
2022/08/29 01:26:11;;;;;;;9.57;6.90;;;11.00;81.30;;;;;;5104782;28;20430;-85
2022/08/29 01:28:41;;;;;;;13.70;12.10;;;11.00;81.30;;;;;;5103862;28;20430;-84
2022/08/29 01:31:10;;;;;;;24.47;23.23;;;10.90;83.00;;;;;;5103613;28;20457;-84
2022/08/29 01:33:40;;;;;;;15.43;14.43;;;10.90;85.50;;;;;;5104302;28;20527;-84
2022/08/29 01:36:09;;;;;;;16.33;15.37;;;10.80;84.90;;;;;;5104337;28;20616;-84
2022/08/29 01:38:37;;;;;;;30.43;28.30;;;10.80;85.80;;;;;;5103351;28;20450;-85
2022/08/29 01:41:05;;;;;;;18.93;17.90;;;10.80;89.50;;;;;;5104521;28;20473;-84
2022/08/29 01:43:40;;;;;;;16.10;14.90;;;10.70;88.30;;;;;;5103911;28;20488;-84
2022/08/29 01:46:06;;;;;;;16.87;15.53;;;10.70;86.50;;;;;;5104668;28;20452;-84
2022/08/29 01:48:35;;;;;;;20.77;19.27;;;10.70;88.40;;;;;;5104128;28;20450;-84
2022/08/29 01:51:02;;;;;;;20.60;19.10;;;10.70;89.50;;;;;;5103435;28;20512;-84
2022/08/29 01:53:29;;;;;;;24.67;23.07;;;10.60;88.70;;;;;;5103533;28;20456;-84
2022/08/29 01:55:55;;;;;;;30.77;29.10;;;10.60;90.60;;;;;;5103764;28;20446;-85
2022/08/29 01:58:22;;;;;;;21.00;19.70;;;10.40;91.10;;;;;;5104004;28;20470;-84
2022/08/29 02:00:50;;;;;;;13.43;8.50;;;10.50;91.20;;;;;;5103865;28;20446;-86
2022/08/29 02:03:17;;;;;;;5.60;3.73;;;10.40;87.30;;;;;;5102479;28;20496;-85
2022/08/29 02:05:46;;;;;;;8.90;3.53;;;10.40;83.60;;;;;;5103669;28;20956;-84
2022/08/29 02:08:13;;;;;;;6.10;3.67;;;10.20;82.20;;;;;;5104267;28;20564;-84
2022/08/29 02:10:39;;;;;;;6.03;4.50;;;10.30;81.30;;;;;;5104267;28;20452;-85
2022/08/29 02:13:06;;;;;;;7.33;6.63;;;10.30;83.70;;;;;;5103680;28;20965;-85
2022/08/29 02:15:33;;;;;;;6.23;3.97;;;10.30;84.90;;;;;;5104416;28;20445;-84
2022/08/29 02:18:01;;;;;;;7.10;4.57;;;10.20;81.40;;;;;;5103907;28;20480;-85
2022/08/29 02:20:28;;;;;;;5.70;2.60;;;10.30;80.90;;;;;;5104068;28;20446;-86
2022/08/29 02:22:54;;;;;;;6.87;3.40;;;10.20;77.90;;;;;;5103871;28;20527;-85
2022/08/29 02:28:05;;;;;;;8.53;5.77;;;9.90;87.20;;;;;;5104000;28;20457;-84
2022/08/29 02:30:34;;;;;;;21.20;20.07;;;9.80;89.90;;;;;;5103462;28;20818;-84
2022/08/29 02:33:02;;;;;;;58.57;56.17;;;9.80;91.90;;;;;;5103802;28;20517;-85
2022/08/29 02:35:29;;;;;;;103.10;99.50;;;9.90;93.50;;;;;;5105054;28;20450;-84
2022/08/29 02:37:56;;;;;;;162.07;156.40;;;10.00;94.40;;;;;;5105898;28;21005;-85
2022/08/29 02:40:25;;;;;;;183.00;176.57;;;10.00;97.00;;;;;;5106620;28;20453;-84
2022/08/29 02:42:52;;;;;;;173.80;167.67;;;10.10;97.80;;;;;;5106259;28;20466;-84
2022/08/29 02:45:20;;;;;;;142.53;137.87;;;10.20;99.90;;;;;;5106253;28;20445;-86
2022/08/29 02:47:47;;;;;;;65.83;63.20;;;10.70;99.90;;;;;;5105469;28;20495;-85
2022/08/29 02:50:16;;;;;;;91.17;87.73;;;10.70;99.90;;;;;;5105582;28;20446;-84
2022/08/29 02:52:43;;;;;;;25.13;23.63;;;11.00;99.10;;;;;;5105627;28;20445;-84
2022/08/29 02:55:14;;;;;;;21.47;19.83;;;11.10;96.30;;;;;;5104362;28;20540;-84
2022/08/29 02:57:41;;;;;;;14.77;13.67;;;11.10;94.50;;;;;;5104297;28;20465;-84
2022/08/29 03:00:14;;;;;;;11.77;10.93;;;11.20;95.00;;;;;;5104366;28;20453;-86
2022/08/29 03:02:41;;;;;;;13.07;12.03;;;11.10;94.20;;;;;;5104596;28;20473;-84
2022/08/29 03:05:08;;;;;;;10.20;7.57;;;11.10;95.00;;;;;;5103587;28;20449;-84
2022/08/29 03:07:36;;;;;;;8.97;7.87;;;10.80;93.90;;;;;;5104821;28;20469;-84
2022/08/29 03:10:05;;;;;;;13.67;12.70;;;10.70;94.60;;;;;;5103924;28;20453;-84
2022/08/29 03:12:32;;;;;;;21.90;20.53;;;10.60;96.20;;;;;;5104763;28;20564;-83
2022/08/29 03:14:59;;;;;;;44.80;42.43;;;10.40;96.90;;;;;;5106784;28;20449;-86
2022/08/29 03:17:25;;;;;;;48.17;46.00;;;10.30;97.70;;;;;;5109534;28;20468;-84
2022/08/29 03:19:52;;;;;;;42.70;40.37;;;10.30;97.70;;;;;;5109658;28;20450;-84
2022/08/29 03:22:19;;;;;;;39.67;37.23;;;10.30;98.50;;;;;;5108247;28;20442;-85
2022/08/29 03:24:47;;;;;;;104.07;100.00;;;10.30;97.70;;;;;;5109892;28;20454;-84
2022/08/29 03:27:14;;;;;;;211.30;204.30;;;10.20;98.00;;;;;;5109145;28;20484;-84
2022/08/29 03:29:40;;;;;;;207.30;200.60;;;10.10;98.60;;;;;;5102838;28;20451;-84
2022/08/29 03:32:07;;;;;;;169.13;163.33;;;10.10;98.50;;;;;;5089530;28;20456;-84
2022/08/29 03:34:34;;;;;;;207.67;200.77;;;10.00;98.60;;;;;;5089227;28;20442;-84
2022/08/29 03:37:01;;;;;;;189.07;182.77;;;10.10;99.90;;;;;;5088137;28;20482;-84
2022/08/29 03:39:28;;;;;;;212.20;205.33;;;10.00;99.50;;;;;;5109337;28;20449;-86
2022/08/29 03:41:56;;;;;;;270.20;261.63;;;10.00;99.60;;;;;;5110409;28;20456;-84
2022/08/29 03:44:24;;;;;;;227.57;220.10;;;10.00;99.90;;;;;;5109337;28;20473;-84
2022/08/29 03:46:50;;;;;;;269.27;260.87;;;9.90;99.90;;;;;;5109587;28;20477;-84
2022/08/29 03:49:17;;;;;;;267.33;258.70;;;9.90;99.90;;;;;;5109923;28;20476;-84
2022/08/29 03:51:44;;;;;;;338.67;327.57;;;9.70;99.90;;;;;;5109653;28;20450;-84
2022/08/29 03:54:11;;;;;;;443.40;426.60;;;9.80;99.90;;;;;;5108347;28;20953;-84
2022/08/29 03:56:38;;;;;;;504.67;484.47;;;9.80;99.90;;;;;;5109034;28;20469;-85
2022/08/29 03:59:07;;;;;;;506.10;485.63;;;9.80;99.90;;;;;;5109594;28;20449;-85
2022/08/29 04:01:34;;;;;;;506.80;484.93;;;9.70;99.90;;;;;;5108648;28;20463;-84
2022/08/29 04:04:01;;;;;;;478.43;459.23;;;9.70;99.90;;;;;;5108836;28;21001;-84
2022/08/29 04:06:28;;;;;;;459.07;441.20;;;9.80;99.90;;;;;;5108094;28;20465;-84
2022/08/29 04:08:55;;;;;;;486.93;466.93;;;9.80;99.90;;;;;;5107311;28;20457;-84
2022/08/29 04:11:24;;;;;;;610.60;582.57;;;9.60;99.90;;;;;;5108330;28;20457;-81
2022/08/29 04:13:51;;;;;;;674.67;642.33;;;9.60;99.90;;;;;;5106948;28;20449;-84
2022/08/29 04:16:21;;;;;;;681.47;648.87;;;9.70;99.90;;;;;;5108085;28;20541;-87
2022/08/29 04:18:48;;;;;;;657.50;625.80;;;9.70;99.90;;;;;;5109229;28;20442;-84
2022/08/29 04:21:17;;;;;;;692.27;657.90;;;9.60;99.90;;;;;;5107796;28;20468;-84
2022/08/29 04:23:45;;;;;;;539.60;516.57;;;9.70;99.90;;;;;;5090765;28;20476;-84
2022/08/29 04:26:14;;;;;;;514.93;493.73;;;9.40;99.90;;;;;;5106178;28;20441;-83
2022/08/29 04:28:41;;;;;;;522.83;501.87;;;9.50;99.90;;;;;;5106699;28;20450;-83
2022/08/29 04:31:18;;;;;;;555.47;532.50;;;9.40;99.90;;;;;;5100013;28;20480;-84
2022/08/29 04:33:48;;;;;;;631.50;603.00;;;9.50;99.90;;;;;;5098272;28;20536;-84
2022/08/29 04:36:16;;;;;;;648.20;618.57;;;9.50;99.90;;;;;;5096791;28;20442;-84
2022/08/29 04:38:45;;;;;;;693.93;659.93;;;9.50;99.90;;;;;;5096692;28;20438;-81
2022/08/29 04:41:13;;;;;;;749.67;710.37;;;9.50;99.90;;;;;;5097667;28;20449;-81
2022/08/29 04:43:40;;;;;;;768.83;727.57;;;9.60;99.90;;;;;;5095439;28;20469;-81
2022/08/29 04:46:09;;;;;;;770.27;727.87;;;9.60;99.90;;;;;;5096301;28;20445;-82
2022/08/29 04:48:35;;;;;;;783.20;740.13;;;9.60;99.90;;;;;;5096313;28;20457;-81
2022/08/29 04:51:03;;;;;;;732.47;693.83;;;9.70;99.90;;;;;;5095988;28;20446;-81
2022/08/29 04:53:31;;;;;;;736.07;696.40;;;9.80;99.90;;;;;;5094429;28;20450;-79
2022/08/29 04:55:58;;;;;;;714.03;675.73;;;9.90;99.90;;;;;;5093352;28;20449;-79
2022/08/29 04:58:27;;;;;;;719.73;681.00;;;9.80;99.90;;;;;;5080629;28;20512;-80
2022/08/29 05:00:54;;;;;;;717.27;679.33;;;9.80;99.90;;;;;;5076646;28;20466;-79
2022/08/29 05:03:22;;;;;;;721.70;683.73;;;9.70;99.90;;;;;;5096293;28;20477;-80
2022/08/29 05:05:56;;;;;;;716.90;679.80;;;9.90;99.90;;;;;;5095299;28;20460;-80
2022/08/29 05:08:25;;;;;;;771.17;728.47;;;9.80;99.90;;;;;;5095603;28;20526;-80
2022/08/29 05:10:51;;;;;;;779.17;735.00;;;9.90;99.90;;;;;;5099499;28;20450;-80
2022/08/29 05:13:18;;;;;;;774.37;730.83;;;10.00;99.90;;;;;;5096546;28;20441;-84
2022/08/29 05:15:45;;;;;;;759.10;717.53;;;10.10;99.90;;;;;;5088390;28;20456;-85
2022/08/29 05:21:11;;;;;;;724.63;686.23;;;10.30;99.90;;;;;;5093742;28;20840;-84
2022/08/29 05:24:05;;;;;;;739.63;700.03;;;10.20;99.90;;;;;;5080480;28;20470;-84
2022/08/29 05:26:48;;;;;;;730.83;691.97;;;10.30;99.90;;;;;;5081449;28;20502;-84
2022/08/29 05:30:08;;;;;;;713.53;676.83;;;10.40;99.90;;;;;;5083963;28;20494;-84
2022/08/29 05:32:35;;;;;;;711.20;674.20;;;10.50;99.90;;;;;;5084152;28;20458;-83
2022/08/29 05:35:08;;;;;;;664.87;632.43;;;10.60;99.90;;;;;;5085571;28;21064;-81
2022/08/29 05:37:52;;;;;;;603.50;575.57;;;10.80;99.90;;;;;;5084055;28;20478;-83
2022/08/29 05:40:44;;;;;;;642.33;612.20;;;10.80;99.90;;;;;;5084092;28;20534;-83
2022/08/29 05:46:35;;;;;;;538.13;513.73;;;11.20;99.90;;;;;;5020152;28;20508;-84
2022/08/29 05:49:10;;;;;;;488.03;468.03;;;11.50;99.90;;;;;;5078858;28;20457;-84
2022/08/29 05:51:52;;;;;;;470.07;450.33;;;11.70;99.90;;;;;;5082498;28;20433;-83
2022/08/29 05:54:21;;;;;;;401.80;385.20;;;12.00;99.90;;;;;;5096306;28;20465;-83
2022/08/29 05:57:53;;;;;;;;;;;;;;;;;;;;;
2022/08/29 06:07:05;;;;;;;63.93;60.67;;;12.70;99.70;;;;;;5000976;23;20866;-84
2022/08/29 06:09:41;;;;;;;64.20;61.13;;;12.80;96.60;;;;;;5074932;28;20458;-83
2022/08/29 06:12:36;;;;;;;54.87;52.17;;;13.20;96.50;;;;;;5075204;28;20511;-85
2022/08/29 06:15:42;;;;;;;61.33;58.00;;;13.40;95.40;;;;;;5074815;28;20947;-85
2022/08/29 06:27:13;;;;;;;11.03;5.97;;;13.90;92.10;;;;;;5054033;28;20550;-86
2022/08/29 06:30:16;;;;;;;12.13;5.73;;;14.10;90.70;;;;;;5074263;28;20446;-85
2022/08/29 06:33:09;;;;;;;7.83;6.43;;;14.20;90.30;;;;;;5076425;28;20473;-82
2022/08/29 06:35:49;;;;;;;17.83;5.20;;;14.20;90.00;;;;;;5016927;28;20495;-85
2022/08/29 06:38:16;;;;;;;10.57;5.47;;;14.20;86.80;;;;;;5012739;28;20475;-80
2022/08/29 06:40:53;;;;;;;8.57;5.33;;;14.30;88.80;;;;;;5071988;28;20435;-85
2022/08/29 06:43:42;;;;;;;10.83;4.90;;;14.10;88.50;;;;;;5076195;28;20453;-85
2022/08/29 06:46:21;;;;;;;12.73;5.87;;;14.10;87.60;;;;;;5062774;28;20450;-86
2022/08/29 06:48:48;;;;;;;8.33;5.10;;;14.10;87.60;;;;;;5078547;28;20806;-85
2022/08/29 06:54:59;;;;;;;10.77;6.47;;;14.00;85.40;;;;;;5041297;28;20435;-85
2022/08/29 06:57:26;;;;;;;8.17;5.30;;;14.30;86.70;;;;;;5078889;28;20476;-83
2022/08/29 06:59:58;;;;;;;11.73;4.10;;;14.30;84.80;;;;;;5078089;28;20914;-85
2022/08/29 07:02:26;;;;;;;10.53;5.90;;;14.70;82.70;;;;;;5075424;28;20973;-85
2022/08/29 07:04:52;;;;;;;17.33;5.90;;;14.70;84.70;;;;;;5075452;28;20476;-85
2022/08/29 07:07:24;;;;;;;12.40;4.43;;;14.90;83.50;;;;;;5069242;28;20475;-85
2022/08/29 07:09:51;;;;;;;9.20;3.87;;;15.00;80.10;;;;;;5055873;28;20493;-84
2022/08/29 07:12:22;;;;;;;9.83;4.40;;;15.30;76.80;;;;;;5075364;28;20887;-85
2022/08/29 07:15:05;;;;;;;8.43;4.20;;;15.20;75.00;;;;;;5080196;28;20443;-83
2022/08/29 07:21:08;;;;;;;14.07;5.03;;;15.60;69.00;;;;;;5003167;28;20519;-85
2022/08/29 07:23:51;;;;;;;9.93;5.10;;;15.80;66.30;;;;;;5010208;28;20450;-84
2022/08/29 07:26:27;;;;;;;10.57;4.27;;;16.00;64.30;;;;;;5052432;28;20455;-86
2022/08/29 07:29:04;;;;;;;12.17;4.87;;;16.10;63.70;;;;;;5051555;28;20455;-86
2022/08/29 07:31:33;;;;;;;11.20;4.37;;;16.40;61.80;;;;;;5052542;28;20872;-86
2022/08/29 07:34:31;;;;;;;9.20;4.00;;;16.60;61.20;;;;;;5053318;28;20448;-85
2022/08/29 07:37:06;;;;;;;10.60;4.50;;;16.70;58.80;;;;;;5052679;28;20480;-86
2022/08/29 07:39:36;;;;;;;10.07;4.57;;;16.90;55.70;;;;;;5052670;28;20445;-86
2022/08/29 07:42:10;;;;;;;12.70;5.00;;;17.00;53.50;;;;;;5051740;28;20453;-85
2022/08/29 07:44:45;;;;;;;11.73;3.20;;;17.30;52.60;;;;;;5051826;28;20467;-85
2022/08/29 07:47:19;;;;;;;9.43;3.50;;;17.30;50.30;;;;;;5050303;28;20489;-85
2022/08/29 07:49:53;;;;;;;17.63;3.50;;;17.50;50.90;;;;;;5051575;28;20544;-85
2022/08/29 07:52:28;;;;;;;11.60;4.10;;;17.80;48.20;;;;;;5052594;28;20427;-85
2022/08/29 07:54:59;;;;;;;12.77;3.73;;;18.10;48.20;;;;;;5052738;28;20453;-85
2022/08/29 07:57:35;;;;;;;8.23;3.17;;;18.50;46.00;;;;;;5051480;28;20533;-85
2022/08/29 08:00:10;;;;;;;15.80;3.17;;;18.50;43.00;;;;;;5053083;28;20515;-85
2022/08/29 08:02:42;;;;;;;11.57;3.40;;;18.60;43.00;;;;;;5055359;28;20519;-86
2022/08/29 08:05:12;;;;;;;13.00;3.27;;;19.00;39.90;;;;;;5055556;28;21020;-86
2022/08/29 08:07:45;;;;;;;9.80;2.90;;;19.40;37.20;;;;;;5056071;28;20485;-86
2022/08/29 08:10:15;;;;;;;7.10;2.67;;;20.10;36.30;;;;;;5055744;28;20454;-86
2022/08/29 08:12:42;;;;;;;8.30;2.90;;;20.40;32.30;;;;;;5055618;28;20499;-86
2022/08/29 08:15:15;;;;;;;12.87;3.10;;;20.80;32.30;;;;;;5055116;28;20456;-85
2022/08/29 08:17:47;;;;;;;7.67;2.60;;;20.60;30.90;;;;;;5055008;28;21003;-85
2022/08/29 08:20:16;;;;;;;11.17;2.60;;;20.90;30.00;;;;;;5055010;28;20465;-84
2022/08/29 08:26:48;;;;;;;8.33;2.73;;;21.70;25.60;;;;;;4988544;28;20483;-85
2022/08/29 08:32:47;;;;;;;15.93;3.17;;;21.40;23.60;;;;;;4953545;28;20547;-85
2022/08/29 08:35:39;;;;;;;7.80;2.60;;;20.70;23.80;;;;;;5054395;28;20445;-85
2022/08/29 08:38:15;;;;;;;8.77;2.20;;;20.90;22.60;;;;;;5054330;28;20477;-86
2022/08/29 08:41:15;;;;;;;7.70;2.93;;;21.20;24.10;;;;;;5054365;28;20454;-85
2022/08/29 08:46:48;;;;;;;9.37;3.07;;;22.60;17.70;;;;;;5076179;28;20987;-84
2022/08/29 08:49:37;;;;;;;14.10;2.73;;;23.00;17.80;;;;;;5080423;28;20425;-84
2022/08/29 08:52:08;;;;;;;12.53;3.00;;;23.70;17.10;;;;;;5076511;28;20439;-79
2022/08/29 08:54:42;;;;;;;6.57;2.03;;;22.90;14.90;;;;;;5074222;28;20456;-79
2022/08/29 08:57:12;;;;;;;6.17;2.40;;;22.60;16.60;;;;;;5076036;28;20849;-79
2022/08/29 08:59:42;;;;;;;12.47;4.00;;;23.00;17.20;;;;;;5078864;28;20462;-80
2022/08/29 09:02:16;;;;;;;9.53;2.40;;;22.80;14.70;;;;;;5079411;28;20800;-81
2022/08/29 09:04:56;;;;;;;11.80;3.10;;;22.90;15.20;;;;;;5078687;28;20596;-81
2022/08/29 09:07:39;;;;;;;9.90;3.07;;;23.40;16.90;;;;;;5075883;28;20882;-80
2022/08/29 09:10:18;;;;;;;7.07;2.73;;;23.00;14.60;;;;;;5076144;28;20816;-80
2022/08/29 09:12:59;;;;;;;10.13;2.80;;;23.40;14.70;;;;;;5074335;28;20445;-85
2022/08/29 09:15:33;;;;;;;14.57;2.80;;;22.60;15.20;;;;;;5073278;28;20430;-85
2022/08/29 09:18:07;;;;;;;7.60;2.47;;;22.40;16.20;;;;;;5073995;28;20474;-86
2022/08/29 09:20:37;;;;;;;6.27;2.17;;;22.90;13.10;;;;;;5074185;28;20515;-86
2022/08/29 09:23:10;;;;;;;8.73;2.40;;;23.20;11.80;;;;;;5073324;28;20446;-85
2022/08/29 09:25:37;;;;;;;7.90;2.60;;;23.50;11.90;;;;;;5074056;28;20470;-85
2022/08/29 09:28:07;;;;;;;7.90;2.60;;;23.50;12.30;;;;;;5073862;28;20476;-86
2022/08/29 09:30:36;;;;;;;9.10;2.57;;;23.70;11.70;;;;;;5073982;28;20439;-86
2022/08/29 09:33:07;;;;;;;6.40;1.70;;;24.60;10.60;;;;;;5073592;28;20429;-85
2022/08/29 09:35:39;;;;;;;17.00;2.70;;;24.40;8.40;;;;;;5073607;28;20907;-84
2022/08/29 09:38:10;;;;;;;9.23;2.70;;;24.80;9.00;;;;;;5073315;28;20513;-85
2022/08/29 09:40:53;;;;;;;9.20;2.10;;;25.10;6.50;;;;;;5073491;28;20455;-86
2022/08/29 09:43:25;;;;;;;9.50;2.43;;;25.00;4.90;;;;;;5073700;28;20433;-85
2022/08/29 09:46:24;;;;;;;8.27;2.73;;;25.10;3.80;;;;;;5073495;28;20553;-85
2022/08/29 09:49:11;;;;;;;6.10;2.17;;;25.10;6.30;;;;;;5011465;28;20445;-85
2022/08/29 09:51:48;;;;;;;8.87;2.70;;;26.00;2.10;;;;;;5068134;28;20453;-86
2022/08/29 09:54:25;;;;;;;6.97;2.50;;;25.50;3.30;;;;;;5073133;28;20450;-85
2022/08/29 09:56:57;;;;;;;8.27;2.53;;;25.00;3.40;;;;;;5073476;28;20561;-86
2022/08/29 09:59:29;;;;;;;8.40;2.57;;;25.30;1.00;;;;;;5073370;28;20481;-85
2022/08/29 10:02:18;;;;;;;9.73;2.33;;;25.00;1.80;;;;;;5073006;28;20469;-86
2022/08/29 10:04:49;;;;;;;6.60;2.47;;;25.00;1.20;;;;;;5073210;28;20432;-85
2022/08/29 10:10:25;;;;;;;9.60;2.87;;;24.80;3.00;;;;;;5041783;28;20435;-84
2022/08/29 10:13:02;;;;;;;9.17;2.83;;;24.80;3.40;;;;;;5042335;28;20961;-84
2022/08/29 10:15:46;;;;;;;6.33;2.60;;;24.70;1.60;;;;;;5040372;28;20456;-85
2022/08/29 10:18:22;;;;;;;15.87;3.17;;;24.70;7.10;;;;;;5042422;28;20476;-84
2022/08/29 10:21:03;;;;;;;8.87;2.43;;;24.90;4.80;;;;;;5041374;28;20448;-85
2022/08/29 10:23:44;;;;;;;9.97;2.60;;;24.50;2.10;;;;;;5044184;28;20458;-86
2022/08/29 10:26:20;;;;;;;18.07;2.40;;;24.70;1.00;;;;;;5042639;28;20536;-85
2022/08/29 10:28:54;;;;;;;11.73;2.80;;;26.30;1.00;;;;;;5045198;28;20535;-86
2022/08/29 10:31:55;;;;;;;7.93;3.10;;;26.50;1.00;;;;;;5042707;28;20456;-85
2022/08/29 10:34:36;;;;;;;10.17;2.70;;;26.20;1.00;;;;;;5032058;28;20475;-85
2022/08/29 10:37:10;;;;;;;8.43;2.37;;;26.50;1.00;;;;;;5043999;28;20464;-85
2022/08/29 10:39:47;;;;;;;8.63;2.80;;;26.30;1.00;;;;;;5039719;28;20546;-85
2022/08/29 10:42:18;;;;;;;10.67;3.07;;;25.70;1.00;;;;;;5042234;28;20440;-85
2022/08/29 10:44:59;;;;;;;11.20;3.30;;;26.10;1.00;;;;;;5043518;28;20448;-86
2022/08/29 10:47:38;;;;;;;9.13;2.80;;;27.70;1.00;;;;;;5043420;28;20450;-87
2022/08/29 10:53:42;;;;;;;8.37;2.40;;;28.50;1.00;;;;;;5026780;28;20452;-86
2022/08/29 10:56:19;;;;;;;6.67;2.83;;;28.70;1.00;;;;;;5041627;28;20496;-86
2022/08/29 10:58:56;;;;;;;9.63;2.40;;;27.60;1.00;;;;;;5039636;28;20456;-86
2022/08/29 11:01:30;;;;;;;7.13;2.50;;;26.80;1.00;;;;;;5044184;28;20414;-86
2022/08/29 11:04:07;;;;;;;8.63;2.77;;;27.50;1.00;;;;;;5039648;28;20451;-86
2022/08/29 11:06:39;;;;;;;5.90;2.50;;;26.40;1.00;;;;;;5043545;28;20479;-86
2022/08/29 11:09:29;;;;;;;8.07;3.37;;;26.70;1.00;;;;;;5042781;28;20474;-85
2022/08/29 11:12:19;;;;;;;6.30;2.20;;;26.60;1.00;;;;;;5038335;28;20458;-85
2022/08/29 11:15:02;;;;;;;10.87;3.13;;;26.20;1.00;;;;;;5039666;28;20431;-86
2022/08/29 11:17:35;;;;;;;7.00;2.73;;;26.30;1.00;;;;;;5041573;28;20455;-87
2022/08/29 11:20:08;;;;;;;7.83;3.10;;;26.80;1.00;;;;;;5040112;28;20451;-85
2022/08/29 11:22:48;;;;;;;7.13;2.70;;;25.80;1.00;;;;;;5038807;28;20448;-85
2022/08/29 11:25:18;;;;;;;6.77;3.00;;;26.50;1.00;;;;;;5038656;28;20479;-85
2022/08/29 11:27:56;;;;;;;8.67;2.43;;;25.80;1.00;;;;;;5037359;28;20881;-85
2022/08/29 11:30:32;;;;;;;7.53;3.23;;;26.20;1.00;;;;;;5039255;28;20538;-85
2022/08/29 11:33:44;;;;;;;6.60;2.23;;;26.60;1.00;;;;;;5039086;28;20445;-85
2022/08/29 11:40:14;;;;;;;9.37;2.77;;;28.40;1.00;;;;;;5021680;28;20444;-84
2022/08/29 11:43:10;;;;;;;7.23;2.60;;;28.20;1.00;;;;;;5041821;28;20427;-86
2022/08/29 11:46:24;;;;;;;8.27;2.27;;;29.20;1.00;;;;;;5037074;28;20475;-86
2022/08/29 11:48:53;;;;;;;10.60;2.77;;;29.50;1.00;;;;;;5041014;28;20834;-84
2022/08/29 11:51:44;;;;;;;11.27;3.23;;;29.40;1.00;;;;;;5043505;28;20552;-84
2022/08/29 12:14:15;;;;;;;11.23;2.57;;;24.70;1.00;;;;;;4995775;28;20449;-82
2022/08/29 12:17:23;;;;;;;9.90;2.60;;;23.70;1.00;;;;;;5012277;28;20520;-82
2022/08/29 12:20:28;;;;;;;11.20;3.10;;;24.00;1.00;;;;;;5016003;28;20481;-81
2022/08/29 13:40:47;;;;;;;9.50;2.20;;;28.20;1.00;;;;;;4953980;28;20486;-85
2022/08/29 13:47:14;;;;;;;7.00;2.83;;;29.50;1.00;;;;;;5069060;28;20448;-86
2022/08/29 13:49:56;;;;;;;6.80;2.53;;;29.50;1.00;;;;;;5073896;28;20450;-86
2022/08/29 13:56:05;;;;;;;6.93;2.60;;;29.70;1.00;;;;;;5072754;28;20958;-86
2022/08/29 13:59:35;;;;;;;11.40;2.60;;;30.40;1.00;;;;;;5072663;28;20425;-85
2022/08/29 14:02:26;;;;;;;8.43;2.63;;;29.90;1.00;;;;;;5064424;28;20461;-86
2022/08/29 14:11:37;;;;;;;7.93;2.67;;;30.20;1.00;;;;;;4934195;29;20510;-84
2022/08/29 14:14:03;;;;;;;11.17;3.07;;;31.20;1.00;;;;;;5014200;28;20434;-84
2022/08/29 14:16:40;;;;;;;8.03;2.47;;;31.80;1.00;;;;;;5075798;28;20870;-84
2022/08/29 14:19:45;;;;;;;6.30;2.50;;;31.50;1.00;;;;;;5080701;28;20541;-84
2022/08/29 14:25:50;;;;;;;6.60;2.47;;;29.10;1.00;;;;;;5083363;28;20454;-84
2022/08/29 14:28:18;;;;;;;6.47;2.77;;;28.30;1.00;;;;;;5080016;28;20437;-85
2022/08/29 14:30:45;;;;;;;8.83;2.93;;;27.70;1.00;;;;;;5077677;28;20450;-86
2022/08/29 14:33:11;;;;;;;7.03;2.73;;;28.00;1.00;;;;;;5077315;28;20452;-85
2022/08/29 14:35:39;;;;;;;7.60;2.67;;;28.10;1.00;;;;;;5077297;28;20450;-85
2022/08/29 14:38:06;;;;;;;8.60;2.50;;;28.20;1.00;;;;;;5078259;28;20825;-85
2022/08/29 14:40:34;;;;;;;10.80;2.50;;;28.10;1.00;;;;;;5077101;28;20457;-85
2022/08/29 14:43:01;;;;;;;5.90;1.67;;;28.20;1.00;;;;;;5077472;28;20445;-85
2022/08/29 14:45:31;;;;;;;6.47;2.60;;;27.70;1.00;;;;;;5077622;28;20446;-86
2022/08/29 14:47:58;;;;;;;6.30;2.63;;;27.50;1.00;;;;;;5078725;28;20540;-85
2022/08/29 14:50:25;;;;;;;9.70;2.50;;;27.60;1.00;;;;;;5078960;28;20450;-85
2022/08/29 14:52:53;;;;;;;6.80;2.17;;;28.10;1.00;;;;;;5078911;28;20432;-86
2022/08/29 14:55:21;;;;;;;8.53;2.37;;;28.30;1.00;;;;;;5078275;28;20436;-86
2022/08/29 14:57:48;;;;;;;7.17;2.60;;;28.50;1.00;;;;;;5078131;28;20469;-85
2022/08/29 15:00:22;;;;;;;6.20;2.37;;;28.10;1.00;;;;;;5077393;28;20433;-85
2022/08/29 15:02:50;;;;;;;7.93;3.07;;;27.90;1.00;;;;;;5077862;28;20446;-85
2022/08/29 15:05:17;;;;;;;7.77;2.63;;;27.20;1.00;;;;;;5077736;28;20966;-85
2022/08/29 15:07:44;;;;;;;8.10;2.30;;;27.00;1.00;;;;;;5077614;28;20489;-85
2022/08/29 15:10:34;;;;;;;6.80;3.00;;;27.10;1.00;;;;;;5077869;28;20474;-85
2022/08/29 15:13:01;;;;;;;7.17;2.63;;;26.70;1.00;;;;;;5081668;28;20442;-85
2022/08/29 15:15:28;;;;;;;6.73;2.50;;;27.10;1.00;;;;;;5081535;28;20470;-85
2022/08/29 15:17:55;;;;;;;7.57;2.80;;;27.40;1.00;;;;;;5082035;28;20436;-85
2022/08/29 15:20:23;;;;;;;6.60;2.20;;;28.70;1.00;;;;;;5082498;28;20875;-85
2022/08/29 15:22:50;;;;;;;9.27;2.60;;;29.30;1.00;;;;;;5082194;28;20488;-87
2022/08/29 15:25:17;;;;;;;5.80;2.20;;;29.40;1.00;;;;;;5081275;28;20982;-85
2022/08/29 15:28:10;;;;;;;8.07;2.70;;;28.40;1.00;;;;;;5080911;28;20976;-85
2022/08/29 15:30:36;;;;;;;9.87;3.77;;;28.20;1.00;;;;;;5074174;28;20458;-84
2022/08/29 15:33:06;;;;;;;6.40;2.10;;;29.10;1.00;;;;;;5080694;28;20420;-85
2022/08/29 15:35:44;;;;;;;7.47;2.60;;;28.40;1.00;;;;;;5080716;28;20503;-85
2022/08/29 15:38:14;;;;;;;5.70;2.03;;;28.60;1.00;;;;;;5081793;28;20569;-85
2022/08/29 15:40:43;;;;;;;7.23;2.83;;;28.90;1.00;;;;;;5081139;28;20442;-86
2022/08/29 15:43:38;;;;;;;10.00;3.13;;;29.00;1.00;;;;;;5082845;28;20429;-86
2022/08/29 15:46:06;;;;;;;8.63;2.37;;;28.60;1.00;;;;;;5078117;28;20963;-86
2022/08/29 15:48:40;;;;;;;5.73;1.97;;;28.10;1.00;;;;;;5082553;28;20474;-85
2022/08/29 15:51:14;;;;;;;9.70;2.33;;;28.00;1.00;;;;;;5082980;28;20432;-87
2022/08/29 15:53:41;;;;;;;8.90;2.37;;;28.40;1.00;;;;;;5082028;28;20931;-85
2022/08/29 15:56:20;;;;;;;;;;;;;;;;;;;;;
2022/08/29 15:58:48;;;;;;;8.80;2.40;;;28.60;1.00;;;;;;5081738;28;20458;-85
2022/08/29 16:01:16;;;;;;;9.77;2.77;;;28.10;1.00;;;;;;5082157;28;20810;-85
2022/08/29 16:03:42;;;;;;;9.50;2.90;;;27.70;1.00;;;;;;5083200;28;20449;-86